sensor_id;sensor_type;location;lat;lon;timestamp;P1;durP1;ratioP1;P2;durP2;ratioP2
4106;SDS011;21906;50.812;7.132;2022-08-19T00:01:43;23.63;;;21.33;;
4106;SDS011;21906;50.812;7.132;2022-08-19T00:04:11;24.60;;;22.20;;
4106;SDS011;21906;50.812;7.132;2022-08-19T00:06:38;24.93;;;22.40;;
4106;SDS011;21906;50.812;7.132;2022-08-19T00:09:06;23.53;;;21.13;;
4106;SDS011;21906;50.812;7.132;2022-08-19T00:11:34;24.53;;;22.03;;
4106;SDS011;21906;50.812;7.132;2022-08-19T00:14:03;23.87;;;21.37;;
4106;SDS011;21906;50.812;7.132;2022-08-19T00:16:31;23.90;;;21.60;;
4106;SDS011;21906;50.812;7.132;2022-08-19T00:18:57;24.70;;;22.20;;
4106;SDS011;21906;50.812;7.132;2022-08-19T00:21:23;23.67;;;21.23;;
4106;SDS011;21906;50.812;7.132;2022-08-19T00:23:52;23.60;;;21.30;;
4106;SDS011;21906;50.812;7.132;2022-08-19T00:26:18;24.70;;;22.00;;
4106;SDS011;21906;50.812;7.132;2022-08-19T00:28:44;24.17;;;21.80;;
4106;SDS011;21906;50.812;7.132;2022-08-19T00:31:11;25.43;;;21.03;;
4106;SDS011;21906;50.812;7.132;2022-08-19T00:33:37;23.17;;;20.80;;
4106;SDS011;21906;50.812;7.132;2022-08-19T00:36:04;24.87;;;22.33;;
4106;SDS011;21906;50.812;7.132;2022-08-19T00:38:32;23.60;;;21.33;;
4106;SDS011;21906;50.812;7.132;2022-08-19T00:40:59;24.37;;;21.80;;
4106;SDS011;21906;50.812;7.132;2022-08-19T00:43:25;23.73;;;21.43;;
4106;SDS011;21906;50.812;7.132;2022-08-19T00:45:52;23.93;;;21.47;;
4106;SDS011;21906;50.812;7.132;2022-08-19T00:48:19;23.40;;;20.97;;
4106;SDS011;21906;50.812;7.132;2022-08-19T00:50:47;23.87;;;21.33;;
4106;SDS011;21906;50.812;7.132;2022-08-19T00:53:15;23.83;;;21.40;;
4106;SDS011;21906;50.812;7.132;2022-08-19T00:55:45;24.33;;;21.93;;
4106;SDS011;21906;50.812;7.132;2022-08-19T00:58:13;25.37;;;22.63;;
4106;SDS011;21906;50.812;7.132;2022-08-19T01:00:43;24.17;;;21.70;;
4106;SDS011;21906;50.812;7.132;2022-08-19T01:03:10;24.80;;;22.30;;
4106;SDS011;21906;50.812;7.132;2022-08-19T01:05:37;23.73;;;21.40;;
4106;SDS011;21906;50.812;7.132;2022-08-19T01:08:06;24.80;;;22.40;;
4106;SDS011;21906;50.812;7.132;2022-08-19T01:10:35;25.23;;;22.50;;
4106;SDS011;21906;50.812;7.132;2022-08-19T01:13:05;24.10;;;21.47;;
4106;SDS011;21906;50.812;7.132;2022-08-19T01:15:32;23.17;;;20.70;;
4106;SDS011;21906;50.812;7.132;2022-08-19T01:18:07;24.50;;;22.00;;
4106;SDS011;21906;50.812;7.132;2022-08-19T01:20:35;24.63;;;22.17;;
4106;SDS011;21906;50.812;7.132;2022-08-19T01:23:01;24.43;;;21.83;;
4106;SDS011;21906;50.812;7.132;2022-08-19T01:25:29;23.27;;;20.87;;
4106;SDS011;21906;50.812;7.132;2022-08-19T01:28:08;24.63;;;22.03;;
4106;SDS011;21906;50.812;7.132;2022-08-19T01:30:44;22.63;;;20.43;;
4106;SDS011;21906;50.812;7.132;2022-08-19T01:33:11;22.50;;;20.23;;
4106;SDS011;21906;50.812;7.132;2022-08-19T01:35:37;23.07;;;20.60;;
4106;SDS011;21906;50.812;7.132;2022-08-19T01:38:05;24.23;;;21.63;;
4106;SDS011;21906;50.812;7.132;2022-08-19T01:40:34;24.23;;;21.73;;
4106;SDS011;21906;50.812;7.132;2022-08-19T01:43:02;23.53;;;21.13;;
4106;SDS011;21906;50.812;7.132;2022-08-19T01:45:28;24.23;;;21.77;;
4106;SDS011;21906;50.812;7.132;2022-08-19T01:47:56;23.47;;;20.40;;
4106;SDS011;21906;50.812;7.132;2022-08-19T01:50:23;22.53;;;20.23;;
4106;SDS011;21906;50.812;7.132;2022-08-19T01:52:50;24.13;;;21.73;;
4106;SDS011;21906;50.812;7.132;2022-08-19T01:55:18;24.13;;;21.67;;
4106;SDS011;21906;50.812;7.132;2022-08-19T01:57:48;24.00;;;21.50;;
4106;SDS011;21906;50.812;7.132;2022-08-19T02:00:18;24.33;;;21.80;;
4106;SDS011;21906;50.812;7.132;2022-08-19T02:02:46;24.97;;;22.37;;
4106;SDS011;21906;50.812;7.132;2022-08-19T02:05:12;25.47;;;22.77;;
4106;SDS011;21906;50.812;7.132;2022-08-19T02:07:38;25.10;;;22.50;;
4106;SDS011;21906;50.812;7.132;2022-08-19T02:10:07;25.03;;;22.60;;
4106;SDS011;21906;50.812;7.132;2022-08-19T02:12:36;24.63;;;22.03;;
4106;SDS011;21906;50.812;7.132;2022-08-19T02:15:02;23.03;;;20.73;;
4106;SDS011;21906;50.812;7.132;2022-08-19T02:17:29;23.93;;;21.53;;
4106;SDS011;21906;50.812;7.132;2022-08-19T02:19:55;24.17;;;21.50;;
4106;SDS011;21906;50.812;7.132;2022-08-19T02:22:21;24.20;;;21.80;;
4106;SDS011;21906;50.812;7.132;2022-08-19T02:24:50;25.33;;;22.53;;
4106;SDS011;21906;50.812;7.132;2022-08-19T02:27:20;24.37;;;21.87;;
4106;SDS011;21906;50.812;7.132;2022-08-19T02:29:47;23.67;;;21.33;;
4106;SDS011;21906;50.812;7.132;2022-08-19T02:32:14;23.97;;;21.50;;
4106;SDS011;21906;50.812;7.132;2022-08-19T02:34:40;24.63;;;21.43;;
4106;SDS011;21906;50.812;7.132;2022-08-19T02:37:06;25.63;;;22.90;;
4106;SDS011;21906;50.812;7.132;2022-08-19T02:39:52;25.50;;;22.90;;
4106;SDS011;21906;50.812;7.132;2022-08-19T02:42:17;24.67;;;21.50;;
4106;SDS011;21906;50.812;7.132;2022-08-19T02:44:43;23.30;;;20.80;;
4106;SDS011;21906;50.812;7.132;2022-08-19T02:47:09;24.03;;;21.53;;
4106;SDS011;21906;50.812;7.132;2022-08-19T02:49:35;24.50;;;21.90;;
4106;SDS011;21906;50.812;7.132;2022-08-19T02:52:02;25.77;;;22.97;;
4106;SDS011;21906;50.812;7.132;2022-08-19T02:54:28;25.27;;;22.57;;
4106;SDS011;21906;50.812;7.132;2022-08-19T02:56:53;25.77;;;23.07;;
4106;SDS011;21906;50.812;7.132;2022-08-19T02:59:19;25.03;;;22.53;;
4106;SDS011;21906;50.812;7.132;2022-08-19T03:01:45;23.70;;;21.17;;
4106;SDS011;21906;50.812;7.132;2022-08-19T03:04:12;24.57;;;21.97;;
4106;SDS011;21906;50.812;7.132;2022-08-19T03:06:40;24.13;;;21.77;;
4106;SDS011;21906;50.812;7.132;2022-08-19T03:09:10;25.37;;;22.67;;
4106;SDS011;21906;50.812;7.132;2022-08-19T03:11:37;24.83;;;22.13;;
4106;SDS011;21906;50.812;7.132;2022-08-19T03:14:03;24.30;;;21.80;;
4106;SDS011;21906;50.812;7.132;2022-08-19T03:16:32;26.63;;;23.80;;
4106;SDS011;21906;50.812;7.132;2022-08-19T03:19:00;23.10;;;20.63;;
4106;SDS011;21906;50.812;7.132;2022-08-19T03:21:27;24.33;;;21.80;;
4106;SDS011;21906;50.812;7.132;2022-08-19T03:23:54;23.83;;;21.43;;
4106;SDS011;21906;50.812;7.132;2022-08-19T03:26:21;31.20;;;21.97;;
4106;SDS011;21906;50.812;7.132;2022-08-19T03:28:47;24.17;;;21.67;;
4106;SDS011;21906;50.812;7.132;2022-08-19T03:31:15;24.40;;;21.80;;
4106;SDS011;21906;50.812;7.132;2022-08-19T03:33:46;24.23;;;21.73;;
4106;SDS011;21906;50.812;7.132;2022-08-19T03:36:17;24.63;;;21.97;;
4106;SDS011;21906;50.812;7.132;2022-08-19T03:38:46;24.90;;;22.20;;
4106;SDS011;21906;50.812;7.132;2022-08-19T03:41:16;23.20;;;20.90;;
4106;SDS011;21906;50.812;7.132;2022-08-19T03:43:45;23.57;;;21.17;;
4106;SDS011;21906;50.812;7.132;2022-08-19T03:46:17;25.67;;;22.60;;
4106;SDS011;21906;50.812;7.132;2022-08-19T03:48:47;24.27;;;21.67;;
4106;SDS011;21906;50.812;7.132;2022-08-19T03:51:26;25.73;;;23.03;;
4106;SDS011;21906;50.812;7.132;2022-08-19T03:53:55;23.67;;;21.20;;
4106;SDS011;21906;50.812;7.132;2022-08-19T03:56:23;25.00;;;22.40;;
4106;SDS011;21906;50.812;7.132;2022-08-19T03:58:50;25.30;;;22.60;;
4106;SDS011;21906;50.812;7.132;2022-08-19T04:01:18;24.27;;;21.70;;
4106;SDS011;21906;50.812;7.132;2022-08-19T04:03:45;25.50;;;22.80;;
4106;SDS011;21906;50.812;7.132;2022-08-19T04:06:12;24.60;;;22.00;;
4106;SDS011;21906;50.812;7.132;2022-08-19T04:08:43;24.70;;;22.20;;
4106;SDS011;21906;50.812;7.132;2022-08-19T04:11:11;24.57;;;22.03;;
4106;SDS011;21906;50.812;7.132;2022-08-19T04:13:38;22.83;;;20.43;;
4106;SDS011;21906;50.812;7.132;2022-08-19T04:16:04;25.10;;;22.27;;
4106;SDS011;21906;50.812;7.132;2022-08-19T04:18:30;23.87;;;21.47;;
4106;SDS011;21906;50.812;7.132;2022-08-19T04:20:57;24.70;;;21.50;;
4106;SDS011;21906;50.812;7.132;2022-08-19T04:23:23;24.53;;;21.97;;
4106;SDS011;21906;50.812;7.132;2022-08-19T04:25:49;23.93;;;21.33;;
4106;SDS011;21906;50.812;7.132;2022-08-19T04:28:16;24.60;;;22.00;;
4106;SDS011;21906;50.812;7.132;2022-08-19T04:30:43;23.20;;;20.83;;
4106;SDS011;21906;50.812;7.132;2022-08-19T04:33:12;23.60;;;20.97;;
4106;SDS011;21906;50.812;7.132;2022-08-19T04:35:41;26.03;;;23.23;;
4106;SDS011;21906;50.812;7.132;2022-08-19T04:38:08;24.23;;;21.80;;
4106;SDS011;21906;50.812;7.132;2022-08-19T04:40:39;24.50;;;21.47;;
4106;SDS011;21906;50.812;7.132;2022-08-19T04:43:25;25.23;;;22.50;;
4106;SDS011;21906;50.812;7.132;2022-08-19T04:45:51;22.50;;;20.20;;
4106;SDS011;21906;50.812;7.132;2022-08-19T04:48:17;24.50;;;21.83;;
4106;SDS011;21906;50.812;7.132;2022-08-19T04:50:50;24.67;;;21.93;;
4106;SDS011;21906;50.812;7.132;2022-08-19T04:53:22;23.27;;;20.87;;
4106;SDS011;21906;50.812;7.132;2022-08-19T04:55:49;23.63;;;21.30;;
4106;SDS011;21906;50.812;7.132;2022-08-19T04:58:14;23.47;;;21.07;;
4106;SDS011;21906;50.812;7.132;2022-08-19T05:00:42;27.60;;;22.57;;
4106;SDS011;21906;50.812;7.132;2022-08-19T05:03:08;23.03;;;20.73;;
4106;SDS011;21906;50.812;7.132;2022-08-19T05:05:37;23.83;;;21.33;;
4106;SDS011;21906;50.812;7.132;2022-08-19T05:08:04;26.60;;;22.37;;
4106;SDS011;21906;50.812;7.132;2022-08-19T05:10:30;24.87;;;22.00;;
4106;SDS011;21906;50.812;7.132;2022-08-19T05:12:56;25.53;;;22.73;;
4106;SDS011;21906;50.812;7.132;2022-08-19T05:15:22;23.93;;;21.40;;
4106;SDS011;21906;50.812;7.132;2022-08-19T05:17:48;23.13;;;20.70;;
4106;SDS011;21906;50.812;7.132;2022-08-19T05:20:32;27.57;;;22.63;;
4106;SDS011;21906;50.812;7.132;2022-08-19T05:23:16;26.50;;;21.77;;
4106;SDS011;21906;50.812;7.132;2022-08-19T05:25:42;44.53;;;26.60;;
4106;SDS011;21906;50.812;7.132;2022-08-19T05:28:08;27.97;;;22.73;;
4106;SDS011;21906;50.812;7.132;2022-08-19T05:30:33;25.53;;;22.80;;
4106;SDS011;21906;50.812;7.132;2022-08-19T05:32:59;30.93;;;24.87;;
4106;SDS011;21906;50.812;7.132;2022-08-19T05:35:25;26.20;;;23.40;;
4106;SDS011;21906;50.812;7.132;2022-08-19T05:37:50;25.93;;;22.87;;
4106;SDS011;21906;50.812;7.132;2022-08-19T05:40:18;24.60;;;22.10;;
4106;SDS011;21906;50.812;7.132;2022-08-19T05:42:43;25.50;;;21.50;;
4106;SDS011;21906;50.812;7.132;2022-08-19T05:45:10;29.53;;;23.10;;
4106;SDS011;21906;50.812;7.132;2022-08-19T05:47:36;28.93;;;22.47;;
4106;SDS011;21906;50.812;7.132;2022-08-19T05:50:02;27.33;;;21.57;;
4106;SDS011;21906;50.812;7.132;2022-08-19T05:52:29;26.60;;;23.67;;
4106;SDS011;21906;50.812;7.132;2022-08-19T05:54:55;26.70;;;22.30;;
4106;SDS011;21906;50.812;7.132;2022-08-19T05:57:20;30.30;;;23.93;;
4106;SDS011;21906;50.812;7.132;2022-08-19T05:59:46;31.10;;;24.53;;
4106;SDS011;21906;50.812;7.132;2022-08-19T06:02:13;33.17;;;25.83;;
4106;SDS011;21906;50.812;7.132;2022-08-19T06:04:39;37.33;;;27.93;;
4106;SDS011;21906;50.812;7.132;2022-08-19T06:07:07;37.00;;;28.63;;
4106;SDS011;21906;50.812;7.132;2022-08-19T06:09:33;35.13;;;27.40;;
4106;SDS011;21906;50.812;7.132;2022-08-19T06:12:00;41.23;;;31.43;;
4106;SDS011;21906;50.812;7.132;2022-08-19T06:14:32;38.07;;;28.77;;
4106;SDS011;21906;50.812;7.132;2022-08-19T06:16:59;33.13;;;26.30;;
4106;SDS011;21906;50.812;7.132;2022-08-19T06:19:27;39.10;;;30.63;;
4106;SDS011;21906;50.812;7.132;2022-08-19T06:21:54;34.73;;;26.53;;
4106;SDS011;21906;50.812;7.132;2022-08-19T06:24:23;33.33;;;27.17;;
4106;SDS011;21906;50.812;7.132;2022-08-19T06:26:51;35.50;;;28.77;;
4106;SDS011;21906;50.812;7.132;2022-08-19T06:29:20;39.60;;;29.67;;
4106;SDS011;21906;50.812;7.132;2022-08-19T06:31:49;39.63;;;29.80;;
4106;SDS011;21906;50.812;7.132;2022-08-19T06:34:17;38.73;;;29.37;;
4106;SDS011;21906;50.812;7.132;2022-08-19T06:36:45;38.40;;;30.40;;
4106;SDS011;21906;50.812;7.132;2022-08-19T06:39:14;39.93;;;30.00;;
4106;SDS011;21906;50.812;7.132;2022-08-19T06:41:42;41.73;;;31.50;;
4106;SDS011;21906;50.812;7.132;2022-08-19T06:44:10;38.00;;;29.27;;
4106;SDS011;21906;50.812;7.132;2022-08-19T06:46:37;41.60;;;32.07;;
4106;SDS011;21906;50.812;7.132;2022-08-19T06:49:03;46.13;;;31.63;;
4106;SDS011;21906;50.812;7.132;2022-08-19T06:51:29;38.83;;;30.10;;
4106;SDS011;21906;50.812;7.132;2022-08-19T06:53:56;40.17;;;29.87;;
4106;SDS011;21906;50.812;7.132;2022-08-19T06:56:27;43.93;;;34.50;;
4106;SDS011;21906;50.812;7.132;2022-08-19T06:58:57;43.67;;;34.60;;
4106;SDS011;21906;50.812;7.132;2022-08-19T07:01:23;47.97;;;34.03;;
4106;SDS011;21906;50.812;7.132;2022-08-19T07:03:49;50.20;;;35.17;;
4106;SDS011;21906;50.812;7.132;2022-08-19T07:06:15;44.40;;;30.60;;
4106;SDS011;21906;50.812;7.132;2022-08-19T07:08:45;44.60;;;33.53;;
4106;SDS011;21906;50.812;7.132;2022-08-19T07:11:12;42.90;;;32.57;;
4106;SDS011;21906;50.812;7.132;2022-08-19T07:13:41;43.63;;;33.77;;
4106;SDS011;21906;50.812;7.132;2022-08-19T07:16:09;41.83;;;31.87;;
4106;SDS011;21906;50.812;7.132;2022-08-19T07:18:38;43.57;;;29.77;;
4106;SDS011;21906;50.812;7.132;2022-08-19T07:23:31;39.63;;;30.37;;
4106;SDS011;21906;50.812;7.132;2022-08-19T07:25:57;34.93;;;28.00;;
4106;SDS011;21906;50.812;7.132;2022-08-19T07:28:23;40.43;;;30.40;;
4106;SDS011;21906;50.812;7.132;2022-08-19T07:30:49;39.53;;;31.43;;
4106;SDS011;21906;50.812;7.132;2022-08-19T07:33:15;33.13;;;26.63;;
4106;SDS011;21906;50.812;7.132;2022-08-19T07:35:42;44.23;;;33.07;;
4106;SDS011;21906;50.812;7.132;2022-08-19T07:38:08;43.80;;;33.27;;
4106;SDS011;21906;50.812;7.132;2022-08-19T07:40:35;36.60;;;28.47;;
4106;SDS011;21906;50.812;7.132;2022-08-19T07:43:01;34.60;;;28.17;;
4106;SDS011;21906;50.812;7.132;2022-08-19T07:45:27;32.77;;;26.40;;
4106;SDS011;21906;50.812;7.132;2022-08-19T07:47:53;34.20;;;27.37;;
4106;SDS011;21906;50.812;7.132;2022-08-19T07:50:19;38.60;;;27.40;;
4106;SDS011;21906;50.812;7.132;2022-08-19T07:52:46;36.37;;;28.30;;
4106;SDS011;21906;50.812;7.132;2022-08-19T07:55:14;36.10;;;29.23;;
4106;SDS011;21906;50.812;7.132;2022-08-19T07:57:41;34.17;;;25.53;;
4106;SDS011;21906;50.812;7.132;2022-08-19T08:00:07;31.57;;;25.67;;
4106;SDS011;21906;50.812;7.132;2022-08-19T08:02:33;37.80;;;28.77;;
4106;SDS011;21906;50.812;7.132;2022-08-19T08:04:58;37.27;;;27.70;;
4106;SDS011;21906;50.812;7.132;2022-08-19T08:07:43;28.40;;;22.13;;
4106;SDS011;21906;50.812;7.132;2022-08-19T08:10:27;33.00;;;25.50;;
4106;SDS011;21906;50.812;7.132;2022-08-19T08:12:53;35.00;;;27.70;;
4106;SDS011;21906;50.812;7.132;2022-08-19T08:15:20;37.27;;;27.40;;
4106;SDS011;21906;50.812;7.132;2022-08-19T08:17:46;26.60;;;22.50;;
4106;SDS011;21906;50.812;7.132;2022-08-19T08:20:12;27.20;;;22.80;;
4106;SDS011;21906;50.812;7.132;2022-08-19T08:22:42;26.37;;;20.60;;
4106;SDS011;21906;50.812;7.132;2022-08-19T08:25:47;21.13;;;18.20;;
4106;SDS011;21906;50.812;7.132;2022-08-19T08:28:14;18.60;;;15.53;;
4106;SDS011;21906;50.812;7.132;2022-08-19T08:30:40;23.80;;;19.30;;
4106;SDS011;21906;50.812;7.132;2022-08-19T08:33:08;23.80;;;20.30;;
4106;SDS011;21906;50.812;7.132;2022-08-19T08:35:34;22.03;;;18.80;;
4106;SDS011;21906;50.812;7.132;2022-08-19T08:38:01;25.07;;;19.67;;
4106;SDS011;21906;50.812;7.132;2022-08-19T08:45:32;21.47;;;16.93;;
4106;SDS011;21906;50.812;7.132;2022-08-19T08:48:30;21.97;;;16.23;;
4106;SDS011;21906;50.812;7.132;2022-08-19T08:50:59;24.60;;;17.03;;
4106;SDS011;21906;50.812;7.132;2022-08-19T08:53:28;20.50;;;15.60;;
4106;SDS011;21906;50.812;7.132;2022-08-19T08:55:56;20.87;;;17.03;;
4106;SDS011;21906;50.812;7.132;2022-08-19T08:58:59;20.23;;;15.63;;
4106;SDS011;21906;50.812;7.132;2022-08-19T09:01:28;17.60;;;15.73;;
4106;SDS011;21906;50.812;7.132;2022-08-19T09:03:54;19.67;;;15.00;;
4106;SDS011;21906;50.812;7.132;2022-08-19T09:11:28;19.77;;;16.80;;
4106;SDS011;21906;50.812;7.132;2022-08-19T09:17:01;23.97;;;20.43;;
4106;SDS011;21906;50.812;7.132;2022-08-19T09:19:28;19.57;;;17.50;;
4106;SDS011;21906;50.812;7.132;2022-08-19T09:21:55;29.57;;;20.50;;
4106;SDS011;21906;50.812;7.132;2022-08-19T09:24:21;23.40;;;19.80;;
4106;SDS011;21906;50.812;7.132;2022-08-19T09:26:46;23.60;;;18.87;;
4106;SDS011;21906;50.812;7.132;2022-08-19T09:29:12;27.13;;;21.13;;
4106;SDS011;21906;50.812;7.132;2022-08-19T09:31:38;21.33;;;18.20;;
4106;SDS011;21906;50.812;7.132;2022-08-19T09:34:04;21.63;;;18.03;;
4106;SDS011;21906;50.812;7.132;2022-08-19T09:36:30;33.93;;;24.30;;
4106;SDS011;21906;50.812;7.132;2022-08-19T09:39:01;28.73;;;20.17;;
4106;SDS011;21906;50.812;7.132;2022-08-19T09:41:29;24.30;;;20.90;;
4106;SDS011;21906;50.812;7.132;2022-08-19T09:43:55;28.93;;;22.20;;
4106;SDS011;21906;50.812;7.132;2022-08-19T09:46:26;31.50;;;24.80;;
4106;SDS011;21906;50.812;7.132;2022-08-19T09:48:54;25.80;;;19.80;;
4106;SDS011;21906;50.812;7.132;2022-08-19T09:51:24;31.63;;;23.83;;
4106;SDS011;21906;50.812;7.132;2022-08-19T09:53:53;26.20;;;22.10;;
4106;SDS011;21906;50.812;7.132;2022-08-19T09:56:23;27.80;;;20.10;;
4106;SDS011;21906;50.812;7.132;2022-08-19T09:58:49;22.50;;;20.10;;
4106;SDS011;21906;50.812;7.132;2022-08-19T10:01:15;25.57;;;20.97;;
4106;SDS011;21906;50.812;7.132;2022-08-19T10:03:43;27.63;;;22.37;;
4106;SDS011;21906;50.812;7.132;2022-08-19T10:06:11;33.17;;;24.67;;
4106;SDS011;21906;50.812;7.132;2022-08-19T10:08:37;23.67;;;19.40;;
4106;SDS011;21906;50.812;7.132;2022-08-19T10:11:04;34.47;;;23.67;;
4106;SDS011;21906;50.812;7.132;2022-08-19T10:13:32;31.50;;;24.23;;
4106;SDS011;21906;50.812;7.132;2022-08-19T10:16:05;33.47;;;24.23;;
4106;SDS011;21906;50.812;7.132;2022-08-19T10:18:33;33.57;;;24.37;;
4106;SDS011;21906;50.812;7.132;2022-08-19T10:23:33;32.50;;;24.87;;
4106;SDS011;21906;50.812;7.132;2022-08-19T10:26:00;38.40;;;28.37;;
4106;SDS011;21906;50.812;7.132;2022-08-19T10:28:25;33.90;;;27.43;;
4106;SDS011;21906;50.812;7.132;2022-08-19T10:30:51;41.13;;;29.13;;
4106;SDS011;21906;50.812;7.132;2022-08-19T10:33:17;32.83;;;24.90;;
4106;SDS011;21906;50.812;7.132;2022-08-19T10:35:43;27.00;;;20.93;;
4106;SDS011;21906;50.812;7.132;2022-08-19T10:38:09;29.07;;;24.70;;
4106;SDS011;21906;50.812;7.132;2022-08-19T10:40:34;30.47;;;25.87;;
4106;SDS011;21906;50.812;7.132;2022-08-19T10:43:00;33.23;;;24.10;;
4106;SDS011;21906;50.812;7.132;2022-08-19T10:45:26;24.90;;;21.50;;
4106;SDS011;21906;50.812;7.132;2022-08-19T10:47:52;23.97;;;21.43;;
4106;SDS011;21906;50.812;7.132;2022-08-19T10:50:18;21.73;;;19.30;;
4106;SDS011;21906;50.812;7.132;2022-08-19T10:53:06;25.17;;;22.13;;
4106;SDS011;21906;50.812;7.132;2022-08-19T10:55:36;20.33;;;18.40;;
4106;SDS011;21906;50.812;7.132;2022-08-19T10:58:20;24.90;;;22.30;;
4106;SDS011;21906;50.812;7.132;2022-08-19T11:00:54;21.97;;;19.70;;
4106;SDS011;21906;50.812;7.132;2022-08-19T11:03:21;22.17;;;19.90;;
4106;SDS011;21906;50.812;7.132;2022-08-19T11:05:56;21.80;;;19.20;;
4106;SDS011;21906;50.812;7.132;2022-08-19T11:08:25;19.67;;;17.70;;
4106;SDS011;21906;50.812;7.132;2022-08-19T11:10:52;20.03;;;18.03;;
4106;SDS011;21906;50.812;7.132;2022-08-19T11:13:21;20.40;;;17.90;;
4106;SDS011;21906;50.812;7.132;2022-08-19T11:15:55;19.50;;;17.57;;
4106;SDS011;21906;50.812;7.132;2022-08-19T11:18:25;19.63;;;17.73;;
4106;SDS011;21906;50.812;7.132;2022-08-19T11:20:51;19.10;;;17.20;;
4106;SDS011;21906;50.812;7.132;2022-08-19T11:23:17;21.90;;;19.50;;
4106;SDS011;21906;50.812;7.132;2022-08-19T11:25:43;19.20;;;17.30;;
4106;SDS011;21906;50.812;7.132;2022-08-19T11:28:10;19.13;;;17.33;;
4106;SDS011;21906;50.812;7.132;2022-08-19T11:30:37;19.00;;;16.87;;
4106;SDS011;21906;50.812;7.132;2022-08-19T11:33:03;16.33;;;14.73;;
4106;SDS011;21906;50.812;7.132;2022-08-19T11:35:29;16.30;;;14.80;;
4106;SDS011;21906;50.812;7.132;2022-08-19T11:37:54;15.10;;;13.80;;
4106;SDS011;21906;50.812;7.132;2022-08-19T11:40:26;16.30;;;14.53;;
4106;SDS011;21906;50.812;7.132;2022-08-19T11:42:51;16.90;;;15.40;;
4106;SDS011;21906;50.812;7.132;2022-08-19T11:45:20;17.83;;;16.23;;
4106;SDS011;21906;50.812;7.132;2022-08-19T11:47:46;16.60;;;15.00;;
4106;SDS011;21906;50.812;7.132;2022-08-19T11:50:12;17.03;;;15.43;;
4106;SDS011;21906;50.812;7.132;2022-08-19T11:52:39;16.27;;;14.57;;
4106;SDS011;21906;50.812;7.132;2022-08-19T11:55:04;16.63;;;14.93;;
4106;SDS011;21906;50.812;7.132;2022-08-19T11:57:31;15.07;;;13.70;;
4106;SDS011;21906;50.812;7.132;2022-08-19T11:59:57;16.83;;;15.30;;
4106;SDS011;21906;50.812;7.132;2022-08-19T12:02:22;16.93;;;15.00;;
4106;SDS011;21906;50.812;7.132;2022-08-19T12:04:48;17.77;;;16.17;;
4106;SDS011;21906;50.812;7.132;2022-08-19T12:07:14;15.87;;;14.37;;
4106;SDS011;21906;50.812;7.132;2022-08-19T12:09:40;15.30;;;14.00;;
4106;SDS011;21906;50.812;7.132;2022-08-19T12:12:06;14.90;;;13.70;;
4106;SDS011;21906;50.812;7.132;2022-08-19T12:14:32;14.80;;;13.40;;
4106;SDS011;21906;50.812;7.132;2022-08-19T12:16:57;16.73;;;15.30;;
4106;SDS011;21906;50.812;7.132;2022-08-19T12:19:23;13.60;;;12.50;;
4106;SDS011;21906;50.812;7.132;2022-08-19T12:21:50;15.07;;;13.70;;
4106;SDS011;21906;50.812;7.132;2022-08-19T12:24:17;14.60;;;13.30;;
4106;SDS011;21906;50.812;7.132;2022-08-19T12:26:48;15.10;;;13.80;;
4106;SDS011;21906;50.812;7.132;2022-08-19T12:29:14;15.30;;;14.10;;
4106;SDS011;21906;50.812;7.132;2022-08-19T12:31:39;13.70;;;12.57;;
4106;SDS011;21906;50.812;7.132;2022-08-19T12:34:05;12.93;;;11.90;;
4106;SDS011;21906;50.812;7.132;2022-08-19T12:36:31;13.83;;;12.73;;
4106;SDS011;21906;50.812;7.132;2022-08-19T12:38:57;14.20;;;13.10;;
4106;SDS011;21906;50.812;7.132;2022-08-19T12:41:24;14.13;;;13.03;;
4106;SDS011;21906;50.812;7.132;2022-08-19T12:43:50;13.20;;;11.90;;
4106;SDS011;21906;50.812;7.132;2022-08-19T12:46:16;13.00;;;12.10;;
4106;SDS011;21906;50.812;7.132;2022-08-19T12:48:43;13.70;;;12.40;;
4106;SDS011;21906;50.812;7.132;2022-08-19T12:51:10;14.63;;;13.33;;
4106;SDS011;21906;50.812;7.132;2022-08-19T12:53:39;18.23;;;14.53;;
4106;SDS011;21906;50.812;7.132;2022-08-19T12:56:05;14.03;;;12.87;;
4106;SDS011;21906;50.812;7.132;2022-08-19T12:58:35;14.80;;;13.50;;
4106;SDS011;21906;50.812;7.132;2022-08-19T13:01:09;16.97;;;13.70;;
4106;SDS011;21906;50.812;7.132;2022-08-19T13:03:36;14.80;;;13.30;;
4106;SDS011;21906;50.812;7.132;2022-08-19T13:06:02;15.23;;;13.73;;
4106;SDS011;21906;50.812;7.132;2022-08-19T13:08:28;15.20;;;13.80;;
4106;SDS011;21906;50.812;7.132;2022-08-19T13:10:53;13.80;;;12.70;;
4106;SDS011;21906;50.812;7.132;2022-08-19T13:13:19;13.57;;;12.37;;
4106;SDS011;21906;50.812;7.132;2022-08-19T13:15:45;14.10;;;12.77;;
4106;SDS011;21906;50.812;7.132;2022-08-19T13:18:11;12.00;;;11.03;;
4106;SDS011;21906;50.812;7.132;2022-08-19T13:20:37;11.07;;;10.33;;
4106;SDS011;21906;50.812;7.132;2022-08-19T13:23:05;11.00;;;10.17;;
4106;SDS011;21906;50.812;7.132;2022-08-19T13:25:31;9.37;;;8.57;;
4106;SDS011;21906;50.812;7.132;2022-08-19T13:27:57;9.80;;;9.00;;
4106;SDS011;21906;50.812;7.132;2022-08-19T13:30:24;10.57;;;9.67;;
4106;SDS011;21906;50.812;7.132;2022-08-19T13:33:08;10.90;;;9.87;;
4106;SDS011;21906;50.812;7.132;2022-08-19T13:35:48;12.23;;;10.87;;
4106;SDS011;21906;50.812;7.132;2022-08-19T13:38:19;11.60;;;10.80;;
4106;SDS011;21906;50.812;7.132;2022-08-19T13:40:46;11.03;;;10.23;;
4106;SDS011;21906;50.812;7.132;2022-08-19T13:43:12;11.37;;;10.27;;
4106;SDS011;21906;50.812;7.132;2022-08-19T13:45:38;12.90;;;11.70;;
4106;SDS011;21906;50.812;7.132;2022-08-19T13:48:05;12.40;;;11.20;;
4106;SDS011;21906;50.812;7.132;2022-08-19T13:50:33;11.77;;;10.83;;
4106;SDS011;21906;50.812;7.132;2022-08-19T13:53:01;11.73;;;10.83;;
4106;SDS011;21906;50.812;7.132;2022-08-19T13:55:27;13.67;;;12.40;;
4106;SDS011;21906;50.812;7.132;2022-08-19T13:57:53;13.83;;;11.60;;
4106;SDS011;21906;50.812;7.132;2022-08-19T14:00:20;12.33;;;11.03;;
4106;SDS011;21906;50.812;7.132;2022-08-19T14:02:51;11.03;;;10.03;;
4106;SDS011;21906;50.812;7.132;2022-08-19T14:05:19;10.77;;;9.97;;
4106;SDS011;21906;50.812;7.132;2022-08-19T14:07:45;10.13;;;9.33;;
4106;SDS011;21906;50.812;7.132;2022-08-19T14:10:11;8.80;;;8.20;;
4106;SDS011;21906;50.812;7.132;2022-08-19T14:12:38;9.83;;;8.97;;
4106;SDS011;21906;50.812;7.132;2022-08-19T14:15:05;10.67;;;9.67;;
4106;SDS011;21906;50.812;7.132;2022-08-19T14:17:31;11.33;;;10.43;;
4106;SDS011;21906;50.812;7.132;2022-08-19T14:20:00;9.73;;;9.03;;
4106;SDS011;21906;50.812;7.132;2022-08-19T14:22:32;8.30;;;7.70;;
4106;SDS011;21906;50.812;7.132;2022-08-19T14:24:58;9.40;;;8.60;;
4106;SDS011;21906;50.812;7.132;2022-08-19T14:27:24;9.60;;;8.80;;
4106;SDS011;21906;50.812;7.132;2022-08-19T14:29:51;10.03;;;9.13;;
4106;SDS011;21906;50.812;7.132;2022-08-19T14:32:17;10.73;;;9.53;;
4106;SDS011;21906;50.812;7.132;2022-08-19T14:34:42;9.97;;;9.17;;
4106;SDS011;21906;50.812;7.132;2022-08-19T14:37:11;10.27;;;9.47;;
4106;SDS011;21906;50.812;7.132;2022-08-19T14:39:39;10.43;;;9.57;;
4106;SDS011;21906;50.812;7.132;2022-08-19T14:42:09;10.07;;;9.07;;
4106;SDS011;21906;50.812;7.132;2022-08-19T14:44:35;11.40;;;10.50;;
4106;SDS011;21906;50.812;7.132;2022-08-19T14:47:01;10.37;;;9.03;;
4106;SDS011;21906;50.812;7.132;2022-08-19T14:49:27;10.60;;;9.47;;
4106;SDS011;21906;50.812;7.132;2022-08-19T14:51:53;11.17;;;9.80;;
4106;SDS011;21906;50.812;7.132;2022-08-19T14:54:18;9.97;;;9.17;;
4106;SDS011;21906;50.812;7.132;2022-08-19T14:56:44;9.20;;;8.40;;
4106;SDS011;21906;50.812;7.132;2022-08-19T14:59:10;9.27;;;8.67;;